createdAt,value
2019-04-10T00:00:37.299Z,5.50
2019-04-10T00:04:43.164Z,5.40
2019-04-10T00:08:47.726Z,5.30
2019-04-10T00:12:52.291Z,5.20
2019-04-10T00:16:56.909Z,5.10
2019-04-10T00:21:01.474Z,5.10
2019-04-10T00:25:06.076Z,5.00
2019-04-10T00:29:10.634Z,4.90
2019-04-10T00:33:15.153Z,4.80
2019-04-10T00:37:26.195Z,4.80
2019-04-10T00:44:44.152Z,4.70
2019-04-10T00:48:48.662Z,4.60
2019-04-10T00:52:53.209Z,4.50
2019-04-10T00:56:57.803Z,4.60
2019-04-10T01:01:03.401Z,4.50
2019-04-10T01:05:08.978Z,4.50
2019-04-10T01:09:13.661Z,4.40
2019-04-10T01:13:18.806Z,4.40
2019-04-10T01:17:24.292Z,4.30
2019-04-10T01:21:28.945Z,4.30
2019-04-10T01:25:34.572Z,4.20
2019-04-10T01:29:39.863Z,4.20
2019-04-10T01:33:45.908Z,4.10
2019-04-10T01:37:56.186Z,4.40
2019-04-10T01:41:56.939Z,4.20
2019-04-10T01:46:02.087Z,4.20
2019-04-10T01:50:07.038Z,4.00
2019-04-10T01:54:11.585Z,4.00
2019-04-10T01:58:19.111Z,3.90
2019-04-10T02:02:42.576Z,3.90
2019-04-10T02:06:47.103Z,3.80
2019-04-10T02:10:52.257Z,3.80
2019-04-10T02:14:56.964Z,3.70
2019-04-10T02:19:01.720Z,3.70
2019-04-10T02:23:06.289Z,3.70
2019-04-10T02:27:11.048Z,3.50
2019-04-10T02:31:15.576Z,3.50
2019-04-10T02:35:22.473Z,3.40
2019-04-10T02:45:51.586Z,3.10
2019-04-10T02:52:20.128Z,3.10
2019-04-10T02:56:25.386Z,3.00
2019-04-10T03:01:56.157Z,3.00
2019-04-10T03:06:00.878Z,3.00
2019-04-10T03:10:19.099Z,2.90
2019-04-10T03:14:12.560Z,3.30
2019-04-10T03:18:17.198Z,3.50
2019-04-10T03:22:22.818Z,3.70
2019-04-10T03:26:27.893Z,3.80
2019-04-10T03:30:34.240Z,3.80
2019-04-10T03:34:41.004Z,3.90
2019-04-10T03:38:55.426Z,4.00
2019-04-10T03:42:51.107Z,4.00
2019-04-10T03:46:55.667Z,4.10
2019-04-10T03:51:00.491Z,4.10
2019-04-10T03:55:05.142Z,4.10
2019-04-10T03:59:09.693Z,4.10
2019-04-10T04:03:14.263Z,4.20
2019-04-10T04:07:18.861Z,4.10
2019-04-10T04:11:23.863Z,4.10
2019-04-10T04:15:28.526Z,4.10
2019-04-10T04:19:33.132Z,4.10
2019-04-10T04:23:38.306Z,3.90
2019-04-10T04:27:42.940Z,3.90
2019-04-10T04:31:48.386Z,3.80
2019-04-10T04:35:53.257Z,3.80
2019-04-10T04:39:58.350Z,3.70
2019-04-10T04:44:03.954Z,3.70
2019-04-10T04:48:09.731Z,3.70
2019-04-10T04:52:14.396Z,3.70
2019-04-10T04:56:19.930Z,3.60
2019-04-10T05:00:25.683Z,3.60
2019-04-10T05:04:32.280Z,3.50
2019-04-10T05:08:36.524Z,3.50
2019-04-10T05:12:42.172Z,3.50
2019-04-10T05:16:47.798Z,3.50
2019-04-10T05:20:52.627Z,3.50
2019-04-10T05:24:57.482Z,3.50
2019-04-10T05:29:02.674Z,3.60
2019-04-10T05:33:08.214Z,3.60
2019-04-10T05:37:13.561Z,3.70
2019-04-10T05:41:18.248Z,3.80
2019-04-10T05:45:23.257Z,3.80
2019-04-10T05:49:28.838Z,4.10
2019-04-10T05:53:34.531Z,4.20
2019-04-10T05:57:39.173Z,4.40
2019-04-10T06:01:44.611Z,4.50
2019-04-10T06:05:50.801Z,4.50
2019-04-10T06:10:00.354Z,4.60
2019-04-10T06:14:01.606Z,4.60
2019-04-10T06:18:07.066Z,4.70
2019-04-10T06:22:12.751Z,4.70
2019-04-10T06:26:17.545Z,4.70
2019-04-10T06:30:22.113Z,4.80
2019-04-10T06:34:26.794Z,4.80
2019-04-10T06:38:31.329Z,4.90
2019-04-10T06:42:46.234Z,4.70
2019-04-10T06:46:42.088Z,4.50
2019-04-10T06:50:47.417Z,4.40
2019-04-10T06:54:53.969Z,4.40
2019-04-10T06:58:58.433Z,4.40
2019-04-10T07:06:36.668Z,4.40
2019-04-10T07:10:43.787Z,4.50
2019-04-10T07:14:37.969Z,4.60
2019-04-10T07:18:45.869Z,4.60
2019-04-10T07:22:49.357Z,4.70
2019-04-10T07:26:55.200Z,4.80
2019-04-10T07:31:04.678Z,5.00
2019-04-10T07:35:06.749Z,5.60
2019-04-10T07:39:11.419Z,7.70
2019-04-10T07:43:18.605Z,8.20
2019-04-10T07:47:22.168Z,9.00
2019-04-10T07:51:27.640Z,10.30
2019-04-10T07:55:33.104Z,10.90
2019-04-10T07:59:37.759Z,11.60
2019-04-10T08:03:42.322Z,12.20
2019-04-10T08:07:47.257Z,12.60
2019-04-10T08:11:51.981Z,13.10
2019-04-10T08:15:56.566Z,13.00
2019-04-10T08:20:01.571Z,13.00
2019-04-10T08:24:07.339Z,13.40
2019-04-10T08:28:11.983Z,13.50
2019-04-10T08:32:16.615Z,13.70
2019-04-10T08:36:21.553Z,13.60
2019-04-10T08:40:26.167Z,13.00
2019-04-10T08:44:31.846Z,12.30
2019-04-10T08:48:36.435Z,11.60
2019-04-10T08:52:41.121Z,11.30
2019-04-10T08:56:45.697Z,10.70
2019-04-10T09:00:52.362Z,10.40
2019-04-10T09:04:57.343Z,10.10
2019-04-10T09:09:03.534Z,9.60
2019-04-10T09:13:08.413Z,9.00
2019-04-10T09:17:13.245Z,8.90
2019-04-10T09:21:17.917Z,8.80
2019-04-10T09:25:22.933Z,8.70
2019-04-10T09:29:27.884Z,8.60
2019-04-10T09:33:32.597Z,8.60
2019-04-10T09:37:37.979Z,8.50
2019-04-10T09:41:43.717Z,8.50
2019-04-10T09:45:48.420Z,8.40
2019-04-10T09:49:53.595Z,8.50
2019-04-10T09:53:59.210Z,8.50
2019-04-10T09:58:03.946Z,8.50
2019-04-10T10:02:09.231Z,8.50
2019-04-10T10:06:25.166Z,8.50
2019-04-10T10:15:18.886Z,8.70
2019-04-10T10:19:23.732Z,8.70
2019-04-10T10:23:28.312Z,8.70
2019-04-10T10:27:32.987Z,8.80
2019-04-10T10:32:09.052Z,8.90
2019-04-10T10:36:13.752Z,8.90
2019-04-10T10:40:19.302Z,8.90
2019-04-10T10:44:23.953Z,8.90
2019-04-10T10:48:29.483Z,9.00
2019-04-10T10:52:34.136Z,9.00
2019-04-10T10:56:38.709Z,9.10
2019-04-10T11:00:43.857Z,9.10
2019-04-10T11:04:48.494Z,9.10
2019-04-10T11:08:53.763Z,9.20
2019-04-10T11:12:58.525Z,9.20
2019-04-10T11:17:03.458Z,9.60
2019-04-10T11:21:10.302Z,9.60
2019-04-10T11:25:15.724Z,9.60
2019-04-10T11:29:21.875Z,9.60
2019-04-10T11:33:26.588Z,9.60
2019-04-10T11:37:40.000Z,9.70
2019-04-10T11:41:38.293Z,9.70
2019-04-10T11:45:48.780Z,9.70
2019-04-10T11:49:49.739Z,9.80
2019-04-10T11:53:56.466Z,10.00
2019-04-10T11:58:00.743Z,10.10
2019-04-10T12:02:06.737Z,10.10
2019-04-10T12:06:11.997Z,10.10
2019-04-10T12:14:24.108Z,10.10
2019-04-10T12:18:28.771Z,10.20
2019-04-10T12:22:33.852Z,10.30
2019-04-10T12:26:38.504Z,10.40
2019-04-10T12:30:43.639Z,10.60
2019-04-10T12:34:48.722Z,10.80
2019-04-10T12:38:54.093Z,10.90
2019-04-10T12:42:58.818Z,11.00
2019-04-10T12:47:03.721Z,11.00
2019-04-10T12:51:09.715Z,11.10
2019-04-10T12:55:14.616Z,11.10
2019-04-10T12:59:19.372Z,11.20
2019-04-10T13:03:25.073Z,11.30
2019-04-10T13:07:29.767Z,11.40
2019-04-10T13:11:34.411Z,11.50
2019-04-10T13:15:39.297Z,11.60
2019-04-10T13:19:44.833Z,11.80
2019-04-10T13:23:49.971Z,11.80
2019-04-10T13:27:54.885Z,11.70
2019-04-10T13:31:59.492Z,11.70
2019-04-10T13:36:05.015Z,11.80
2019-04-10T13:40:11.138Z,11.80
2019-04-10T13:44:16.295Z,12.00
2019-04-10T13:48:20.924Z,12.00
2019-04-10T13:52:25.938Z,12.10
2019-04-10T13:56:30.957Z,12.20
2019-04-10T14:00:39.955Z,12.20
2019-04-10T14:04:43.768Z,12.40
2019-04-10T14:09:03.126Z,12.80
2019-04-10T14:12:56.391Z,13.00
2019-04-10T14:17:03.806Z,13.10
2019-04-10T14:21:11.060Z,13.20
2019-04-10T14:25:23.728Z,13.30
2019-04-10T14:29:28.285Z,13.40
2019-04-10T14:33:32.853Z,13.50
2019-04-10T14:37:37.908Z,13.50
2019-04-10T14:41:42.575Z,13.60
2019-04-10T14:45:48.036Z,13.60
2019-04-10T14:49:54.874Z,13.70
2019-04-10T14:54:01.712Z,13.80
2019-04-10T14:58:07.618Z,13.70
2019-04-10T15:02:14.678Z,13.70
2019-04-10T15:06:21.496Z,13.70
2019-04-10T15:10:25.603Z,13.70
2019-04-10T15:14:32.538Z,13.70
2019-04-10T15:18:37.200Z,13.70
2019-04-10T15:22:42.124Z,13.60
2019-04-10T15:26:46.843Z,13.60
2019-04-10T15:30:51.436Z,12.90
2019-04-10T15:34:56.004Z,13.60
2019-04-10T15:39:00.517Z,13.60
2019-04-10T15:43:05.313Z,13.70
2019-04-10T15:47:17.504Z,13.60
2019-04-10T15:51:16.221Z,13.70
2019-04-10T15:55:21.635Z,13.70
2019-04-10T15:59:26.352Z,13.80
2019-04-10T16:03:30.896Z,13.70
2019-04-10T16:07:36.287Z,13.70
2019-04-10T16:12:03.052Z,13.60
2019-04-10T16:16:42.285Z,13.60
2019-04-10T16:20:47.461Z,13.50
2019-04-10T16:24:52.057Z,13.40
2019-04-10T16:28:57.609Z,13.40
2019-04-10T16:33:02.915Z,13.40
2019-04-10T16:37:08.412Z,13.50
2019-04-10T16:41:13.194Z,13.50
2019-04-10T16:45:17.730Z,13.50
2019-04-10T16:49:22.548Z,13.50
2019-04-10T16:53:27.923Z,13.40
2019-04-10T16:57:32.581Z,13.30
2019-04-10T17:01:37.198Z,13.30
2019-04-10T17:05:41.966Z,13.20
2019-04-10T17:09:47.280Z,13.20
2019-04-10T17:13:52.934Z,13.10
2019-04-10T17:17:57.579Z,13.00
2019-04-10T17:22:02.779Z,12.90
2019-04-10T17:26:08.613Z,12.80
2019-04-10T17:30:13.589Z,12.70
2019-04-10T17:34:18.729Z,12.50
2019-04-10T17:38:24.498Z,12.30
2019-04-10T17:42:30.414Z,12.10
2019-04-10T17:46:35.360Z,11.60
2019-04-10T17:53:43.390Z,11.10
2019-04-10T17:58:36.409Z,10.70
2019-04-10T18:02:41.102Z,10.40
2019-04-10T18:06:46.986Z,10.40
2019-04-10T18:10:54.111Z,10.20
2019-04-10T18:14:58.148Z,10.10
2019-04-10T18:19:02.686Z,9.80
2019-04-10T18:23:07.286Z,9.80
2019-04-10T18:27:12.268Z,9.70
2019-04-10T18:34:21.456Z,9.50
2019-04-10T18:38:26.132Z,9.30
2019-04-10T18:42:30.895Z,9.30
2019-04-10T18:46:35.510Z,9.10
2019-04-10T18:50:40.573Z,9.00
2019-04-10T18:54:45.299Z,8.90
2019-04-10T18:59:08.753Z,8.80
2019-04-10T19:03:25.613Z,8.60
2019-04-10T19:07:30.180Z,8.50
2019-04-10T19:11:35.734Z,8.50
2019-04-10T19:18:11.729Z,8.30
2019-04-10T19:22:17.975Z,8.10
2019-04-10T19:28:35.017Z,8.10
2019-04-10T19:32:39.057Z,8.00
2019-04-10T19:36:43.913Z,7.90
2019-04-10T19:40:48.525Z,7.90
2019-04-10T19:48:43.855Z,7.70
2019-04-10T19:52:48.759Z,7.70
2019-04-10T19:56:53.342Z,7.60
2019-04-10T20:00:58.887Z,7.60
2019-04-10T20:05:03.604Z,7.50
2019-04-10T20:09:10.367Z,7.50
2019-04-10T20:13:15.225Z,7.40
2019-04-10T20:19:58.322Z,7.30
2019-04-10T20:24:03.283Z,7.30
2019-04-10T20:28:08.803Z,7.20
2019-04-10T20:32:14.159Z,7.10
2019-04-10T20:36:18.784Z,7.10
2019-04-10T20:40:23.323Z,7.00
2019-04-10T20:45:07.367Z,6.90
2019-04-10T20:49:12.196Z,6.80
2019-04-10T20:53:17.913Z,6.70
2019-04-10T20:57:23.470Z,6.60
2019-04-10T21:01:28.827Z,6.60
2019-04-10T21:05:33.777Z,6.50
2019-04-10T21:09:39.530Z,6.50
2019-04-10T21:17:45.085Z,6.20
2019-04-10T21:21:49.617Z,6.10
2019-04-10T21:25:55.280Z,6.10
2019-04-10T21:30:37.091Z,6.40
2019-04-10T21:34:44.714Z,6.60
2019-04-10T21:38:50.570Z,6.60
2019-04-10T21:42:56.095Z,6.70
2019-04-10T21:47:01.351Z,6.70
2019-04-10T21:51:06.792Z,6.70
2019-04-10T21:55:12.819Z,6.70
2019-04-10T21:59:18.336Z,6.80
2019-04-10T22:03:23.082Z,6.70
2019-04-10T22:07:34.825Z,6.80
2019-04-10T22:11:39.463Z,6.70
2019-04-10T22:15:45.516Z,6.70
2019-04-10T22:19:50.736Z,6.70
2019-04-10T22:23:56.635Z,6.70
2019-04-10T22:28:01.287Z,6.70
2019-04-10T22:32:06.384Z,6.70
2019-04-10T22:36:10.993Z,6.70
2019-04-10T22:40:15.768Z,6.60
2019-04-10T22:44:32.445Z,6.60
2019-04-10T22:48:26.517Z,6.70
2019-04-10T22:52:31.061Z,6.60
2019-04-10T22:56:35.868Z,6.60
2019-04-10T23:00:40.425Z,6.60
2019-04-10T23:04:44.963Z,6.50
2019-04-10T23:08:49.685Z,6.50
2019-04-10T23:13:00.033Z,6.40
2019-04-10T23:17:00.451Z,6.40
2019-04-10T23:21:06.011Z,6.40
2019-04-10T23:25:10.657Z,6.30
2019-04-10T23:29:15.847Z,6.30
2019-04-10T23:33:20.707Z,6.20
2019-04-10T23:37:25.197Z,6.20
2019-04-10T23:41:29.732Z,6.10
2019-04-10T23:45:34.629Z,6.10
2019-04-10T23:49:39.538Z,6.00
2019-04-10T23:53:44.793Z,6.00
2019-04-10T23:57:49.573Z,6.00
